sensor_id;sensor_type;location;lat;lon;timestamp;P1;durP1;ratioP1;P2;durP2;ratioP2
60665;SDS011;59128;44.642;21.188;2023-02-28T00:01:31;33.72;;;27.25;;
60665;SDS011;59128;44.642;21.188;2023-02-28T00:03:57;31.57;;;25.70;;
60665;SDS011;59128;44.642;21.188;2023-02-28T00:06:23;33.22;;;26.15;;
60665;SDS011;59128;44.642;21.188;2023-02-28T00:08:49;34.78;;;26.95;;
60665;SDS011;59128;44.642;21.188;2023-02-28T00:11:15;33.38;;;26.05;;
60665;SDS011;59128;44.642;21.188;2023-02-28T00:13:42;38.65;;;30.92;;
60665;SDS011;59128;44.642;21.188;2023-02-28T00:16:12;34.20;;;28.30;;
60665;SDS011;59128;44.642;21.188;2023-02-28T00:18:38;35.53;;;28.45;;
60665;SDS011;59128;44.642;21.188;2023-02-28T00:21:05;31.90;;;25.50;;
60665;SDS011;59128;44.642;21.188;2023-02-28T00:23:31;27.20;;;21.60;;
60665;SDS011;59128;44.642;21.188;2023-02-28T00:25:57;27.73;;;22.98;;
60665;SDS011;59128;44.642;21.188;2023-02-28T00:28:23;28.58;;;23.35;;
60665;SDS011;59128;44.642;21.188;2023-02-28T00:30:49;34.13;;;27.92;;
60665;SDS011;59128;44.642;21.188;2023-02-28T00:33:15;38.03;;;30.95;;
60665;SDS011;59128;44.642;21.188;2023-02-28T00:35:41;34.15;;;27.83;;
60665;SDS011;59128;44.642;21.188;2023-02-28T00:38:08;35.05;;;28.20;;
60665;SDS011;59128;44.642;21.188;2023-02-28T00:40:34;36.25;;;29.15;;
60665;SDS011;59128;44.642;21.188;2023-02-28T00:43:00;31.08;;;25.30;;
60665;SDS011;59128;44.642;21.188;2023-02-28T00:45:26;26.30;;;22.08;;
60665;SDS011;59128;44.642;21.188;2023-02-28T00:47:52;23.13;;;19.92;;
60665;SDS011;59128;44.642;21.188;2023-02-28T00:50:18;23.40;;;20.27;;
60665;SDS011;59128;44.642;21.188;2023-02-28T00:52:45;24.17;;;20.23;;
60665;SDS011;59128;44.642;21.188;2023-02-28T00:55:11;26.15;;;21.05;;
60665;SDS011;59128;44.642;21.188;2023-02-28T00:57:37;26.25;;;21.80;;
60665;SDS011;59128;44.642;21.188;2023-02-28T01:00:04;26.83;;;22.23;;
60665;SDS011;59128;44.642;21.188;2023-02-28T01:02:30;25.30;;;20.75;;
60665;SDS011;59128;44.642;21.188;2023-02-28T01:04:56;25.83;;;20.05;;
60665;SDS011;59128;44.642;21.188;2023-02-28T01:07:22;27.90;;;22.95;;
60665;SDS011;59128;44.642;21.188;2023-02-28T01:09:48;26.23;;;21.40;;
60665;SDS011;59128;44.642;21.188;2023-02-28T01:12:15;21.77;;;17.98;;
60665;SDS011;59128;44.642;21.188;2023-02-28T01:14:41;20.88;;;17.83;;
60665;SDS011;59128;44.642;21.188;2023-02-28T01:17:07;22.50;;;18.48;;
60665;SDS011;59128;44.642;21.188;2023-02-28T01:19:33;21.40;;;17.90;;
60665;SDS011;59128;44.642;21.188;2023-02-28T01:22:01;23.65;;;19.70;;
60665;SDS011;59128;44.642;21.188;2023-02-28T01:24:27;22.90;;;18.75;;
60665;SDS011;59128;44.642;21.188;2023-02-28T01:26:53;22.38;;;18.95;;
60665;SDS011;59128;44.642;21.188;2023-02-28T01:29:19;20.55;;;17.38;;
60665;SDS011;59128;44.642;21.188;2023-02-28T01:31:45;21.02;;;17.85;;
60665;SDS011;59128;44.642;21.188;2023-02-28T01:34:11;22.48;;;18.42;;
60665;SDS011;59128;44.642;21.188;2023-02-28T01:36:37;23.85;;;19.90;;
60665;SDS011;59128;44.642;21.188;2023-02-28T01:39:03;25.95;;;21.63;;
60665;SDS011;59128;44.642;21.188;2023-02-28T01:41:30;28.08;;;22.98;;
60665;SDS011;59128;44.642;21.188;2023-02-28T01:46:42;27.75;;;23.00;;
60665;SDS011;59128;44.642;21.188;2023-02-28T01:49:10;27.33;;;22.07;;
60665;SDS011;59128;44.642;21.188;2023-02-28T01:51:41;26.63;;;21.88;;
60665;SDS011;59128;44.642;21.188;2023-02-28T01:54:16;26.48;;;21.73;;
60665;SDS011;59128;44.642;21.188;2023-02-28T01:56:46;25.45;;;20.83;;
60665;SDS011;59128;44.642;21.188;2023-02-28T01:59:14;24.02;;;19.98;;
60665;SDS011;59128;44.642;21.188;2023-02-28T02:01:43;23.58;;;20.02;;
60665;SDS011;59128;44.642;21.188;2023-02-28T02:04:09;23.38;;;19.88;;
60665;SDS011;59128;44.642;21.188;2023-02-28T02:06:37;22.53;;;18.87;;
60665;SDS011;59128;44.642;21.188;2023-02-28T02:09:03;24.55;;;20.88;;
60665;SDS011;59128;44.642;21.188;2023-02-28T02:11:31;23.48;;;20.20;;
60665;SDS011;59128;44.642;21.188;2023-02-28T02:27:26;26.20;;;21.85;;
60665;SDS011;59128;44.642;21.188;2023-02-28T02:40:01;28.17;;;23.17;;
60665;SDS011;59128;44.642;21.188;2023-02-28T02:42:38;36.30;;;28.20;;
60665;SDS011;59128;44.642;21.188;2023-02-28T02:45:13;28.50;;;23.83;;
60665;SDS011;59128;44.642;21.188;2023-02-28T02:47:41;28.15;;;22.70;;
60665;SDS011;59128;44.642;21.188;2023-02-28T02:50:11;26.58;;;21.58;;
60665;SDS011;59128;44.642;21.188;2023-02-28T02:52:41;24.33;;;21.10;;
60665;SDS011;59128;44.642;21.188;2023-02-28T02:55:08;23.75;;;21.15;;
60665;SDS011;59128;44.642;21.188;2023-02-28T02:57:37;27.20;;;22.30;;
60665;SDS011;59128;44.642;21.188;2023-02-28T03:00:06;26.08;;;21.95;;
60665;SDS011;59128;44.642;21.188;2023-02-28T03:02:34;30.20;;;24.00;;
60665;SDS011;59128;44.642;21.188;2023-02-28T03:05:02;25.23;;;21.63;;
60665;SDS011;59128;44.642;21.188;2023-02-28T03:07:30;26.92;;;22.50;;
60665;SDS011;59128;44.642;21.188;2023-02-28T03:09:56;26.67;;;22.48;;
60665;SDS011;59128;44.642;21.188;2023-02-28T03:12:23;29.10;;;24.33;;
60665;SDS011;59128;44.642;21.188;2023-02-28T03:14:55;30.23;;;25.55;;
60665;SDS011;59128;44.642;21.188;2023-02-28T03:19:51;30.63;;;25.38;;
60665;SDS011;59128;44.642;21.188;2023-02-28T03:25:04;46.95;;;33.50;;
60665;SDS011;59128;44.642;21.188;2023-02-28T03:27:33;38.20;;;29.83;;
60665;SDS011;59128;44.642;21.188;2023-02-28T03:32:28;34.83;;;26.95;;
60665;SDS011;59128;44.642;21.188;2023-02-28T03:35:09;27.93;;;23.47;;
60665;SDS011;59128;44.642;21.188;2023-02-28T03:37:38;31.60;;;24.77;;
60665;SDS011;59128;44.642;21.188;2023-02-28T03:40:08;30.88;;;25.10;;
60665;SDS011;59128;44.642;21.188;2023-02-28T03:42:37;32.85;;;25.65;;
60665;SDS011;59128;44.642;21.188;2023-02-28T03:45:08;35.38;;;26.88;;
60665;SDS011;59128;44.642;21.188;2023-02-28T03:50:11;31.05;;;24.55;;
60665;SDS011;59128;44.642;21.188;2023-02-28T03:52:40;29.48;;;23.95;;
60665;SDS011;59128;44.642;21.188;2023-02-28T03:55:10;32.08;;;25.20;;
60665;SDS011;59128;44.642;21.188;2023-02-28T04:02:35;29.42;;;23.98;;
60665;SDS011;59128;44.642;21.188;2023-02-28T04:05:01;29.27;;;24.13;;
60665;SDS011;59128;44.642;21.188;2023-02-28T04:07:30;34.08;;;27.08;;
60665;SDS011;59128;44.642;21.188;2023-02-28T04:09:56;35.20;;;28.17;;
60665;SDS011;59128;44.642;21.188;2023-02-28T04:12:22;43.63;;;33.42;;
60665;SDS011;59128;44.642;21.188;2023-02-28T04:14:49;40.53;;;31.05;;
60665;SDS011;59128;44.642;21.188;2023-02-28T04:17:15;42.70;;;33.42;;
60665;SDS011;59128;44.642;21.188;2023-02-28T04:19:41;45.17;;;33.22;;
60665;SDS011;59128;44.642;21.188;2023-02-28T04:22:08;41.17;;;30.67;;
60665;SDS011;59128;44.642;21.188;2023-02-28T04:24:35;41.92;;;30.95;;
60665;SDS011;59128;44.642;21.188;2023-02-28T04:27:01;41.23;;;31.10;;
60665;SDS011;59128;44.642;21.188;2023-02-28T04:29:28;40.15;;;30.48;;
60665;SDS011;59128;44.642;21.188;2023-02-28T04:31:55;43.40;;;31.95;;
60665;SDS011;59128;44.642;21.188;2023-02-28T04:34:27;42.63;;;31.88;;
60665;SDS011;59128;44.642;21.188;2023-02-28T04:36:54;44.60;;;32.92;;
60665;SDS011;59128;44.642;21.188;2023-02-28T04:39:21;41.38;;;31.17;;
60665;SDS011;59128;44.642;21.188;2023-02-28T04:41:47;41.15;;;30.90;;
60665;SDS011;59128;44.642;21.188;2023-02-28T04:44:13;42.77;;;31.53;;
60665;SDS011;59128;44.642;21.188;2023-02-28T04:46:39;43.50;;;31.48;;
60665;SDS011;59128;44.642;21.188;2023-02-28T04:49:05;41.45;;;30.67;;
60665;SDS011;59128;44.642;21.188;2023-02-28T04:51:31;38.92;;;30.02;;
60665;SDS011;59128;44.642;21.188;2023-02-28T04:53:57;42.50;;;30.83;;
60665;SDS011;59128;44.642;21.188;2023-02-28T04:56:23;39.83;;;30.15;;
60665;SDS011;59128;44.642;21.188;2023-02-28T04:58:50;38.30;;;29.30;;
60665;SDS011;59128;44.642;21.188;2023-02-28T05:03:44;37.67;;;29.50;;
60665;SDS011;59128;44.642;21.188;2023-02-28T05:06:10;38.63;;;28.80;;
60665;SDS011;59128;44.642;21.188;2023-02-28T05:08:36;33.08;;;26.83;;
60665;SDS011;59128;44.642;21.188;2023-02-28T05:11:02;32.20;;;26.83;;
60665;SDS011;59128;44.642;21.188;2023-02-28T05:13:29;32.75;;;25.90;;
60665;SDS011;59128;44.642;21.188;2023-02-28T05:15:55;32.83;;;25.92;;
60665;SDS011;59128;44.642;21.188;2023-02-28T05:18:21;29.67;;;24.40;;
60665;SDS011;59128;44.642;21.188;2023-02-28T05:20:47;29.40;;;24.88;;
60665;SDS011;59128;44.642;21.188;2023-02-28T05:23:13;29.70;;;24.50;;
60665;SDS011;59128;44.642;21.188;2023-02-28T05:25:40;29.27;;;23.95;;
60665;SDS011;59128;44.642;21.188;2023-02-28T05:28:07;30.00;;;24.27;;
60665;SDS011;59128;44.642;21.188;2023-02-28T05:30:33;30.48;;;24.52;;
60665;SDS011;59128;44.642;21.188;2023-02-28T05:32:59;29.45;;;24.17;;
60665;SDS011;59128;44.642;21.188;2023-02-28T05:35:25;27.83;;;23.50;;
60665;SDS011;59128;44.642;21.188;2023-02-28T05:37:52;29.88;;;23.38;;
60665;SDS011;59128;44.642;21.188;2023-02-28T05:40:18;28.33;;;23.52;;
60665;SDS011;59128;44.642;21.188;2023-02-28T05:42:47;29.50;;;23.90;;
60665;SDS011;59128;44.642;21.188;2023-02-28T05:45:13;32.03;;;25.45;;
60665;SDS011;59128;44.642;21.188;2023-02-28T05:47:39;31.10;;;25.30;;
60665;SDS011;59128;44.642;21.188;2023-02-28T05:50:05;29.40;;;23.95;;
60665;SDS011;59128;44.642;21.188;2023-02-28T05:52:31;30.67;;;24.50;;
60665;SDS011;59128;44.642;21.188;2023-02-28T05:54:57;31.70;;;25.13;;
60665;SDS011;59128;44.642;21.188;2023-02-28T05:57:24;30.85;;;25.38;;
60665;SDS011;59128;44.642;21.188;2023-02-28T05:59:50;32.70;;;25.40;;
60665;SDS011;59128;44.642;21.188;2023-02-28T06:02:17;32.00;;;26.35;;
60665;SDS011;59128;44.642;21.188;2023-02-28T06:04:43;34.83;;;27.20;;
60665;SDS011;59128;44.642;21.188;2023-02-28T06:07:09;38.78;;;29.60;;
60665;SDS011;59128;44.642;21.188;2023-02-28T06:09:36;41.83;;;31.42;;
60665;SDS011;59128;44.642;21.188;2023-02-28T06:12:02;42.88;;;32.65;;
60665;SDS011;59128;44.642;21.188;2023-02-28T06:14:30;42.03;;;31.83;;
60665;SDS011;59128;44.642;21.188;2023-02-28T06:16:56;42.45;;;32.75;;
60665;SDS011;59128;44.642;21.188;2023-02-28T06:19:22;41.95;;;32.53;;
60665;SDS011;59128;44.642;21.188;2023-02-28T06:21:50;45.00;;;34.40;;
60665;SDS011;59128;44.642;21.188;2023-02-28T06:24:17;46.80;;;34.40;;
60665;SDS011;59128;44.642;21.188;2023-02-28T06:26:43;43.42;;;32.90;;
60665;SDS011;59128;44.642;21.188;2023-02-28T06:29:09;44.88;;;33.00;;
60665;SDS011;59128;44.642;21.188;2023-02-28T06:31:36;37.53;;;29.40;;
60665;SDS011;59128;44.642;21.188;2023-02-28T06:34:03;34.70;;;27.50;;
60665;SDS011;59128;44.642;21.188;2023-02-28T06:36:29;32.30;;;26.60;;
60665;SDS011;59128;44.642;21.188;2023-02-28T06:38:56;33.53;;;27.23;;
60665;SDS011;59128;44.642;21.188;2023-02-28T06:41:25;34.37;;;27.57;;
60665;SDS011;59128;44.642;21.188;2023-02-28T06:43:51;35.83;;;27.80;;
60665;SDS011;59128;44.642;21.188;2023-02-28T06:46:18;35.58;;;27.45;;
60665;SDS011;59128;44.642;21.188;2023-02-28T06:48:44;33.45;;;26.13;;
60665;SDS011;59128;44.642;21.188;2023-02-28T06:51:13;33.17;;;26.35;;
60665;SDS011;59128;44.642;21.188;2023-02-28T06:53:39;32.45;;;26.15;;
60665;SDS011;59128;44.642;21.188;2023-02-28T06:56:06;32.25;;;26.52;;
60665;SDS011;59128;44.642;21.188;2023-02-28T06:58:33;32.10;;;25.87;;
60665;SDS011;59128;44.642;21.188;2023-02-28T07:00:59;29.02;;;23.95;;
60665;SDS011;59128;44.642;21.188;2023-02-28T07:03:26;30.17;;;24.65;;
60665;SDS011;59128;44.642;21.188;2023-02-28T07:05:52;45.63;;;36.13;;
60665;SDS011;59128;44.642;21.188;2023-02-28T07:08:17;44.40;;;35.13;;
60665;SDS011;59128;44.642;21.188;2023-02-28T07:10:43;79.82;;;58.50;;
60665;SDS011;59128;44.642;21.188;2023-02-28T07:13:10;56.13;;;41.58;;
60665;SDS011;59128;44.642;21.188;2023-02-28T07:15:37;40.50;;;31.63;;
60665;SDS011;59128;44.642;21.188;2023-02-28T07:18:03;41.42;;;32.60;;
60665;SDS011;59128;44.642;21.188;2023-02-28T07:20:29;45.08;;;36.90;;
60665;SDS011;59128;44.642;21.188;2023-02-28T07:22:55;42.90;;;34.70;;
60665;SDS011;59128;44.642;21.188;2023-02-28T07:25:22;44.47;;;37.05;;
60665;SDS011;59128;44.642;21.188;2023-02-28T07:27:49;45.85;;;36.00;;
60665;SDS011;59128;44.642;21.188;2023-02-28T07:30:15;51.90;;;41.17;;
60665;SDS011;59128;44.642;21.188;2023-02-28T07:32:41;47.85;;;39.20;;
60665;SDS011;59128;44.642;21.188;2023-02-28T07:35:07;55.42;;;45.33;;
60665;SDS011;59128;44.642;21.188;2023-02-28T07:37:33;73.15;;;52.42;;
60665;SDS011;59128;44.642;21.188;2023-02-28T07:40:02;66.63;;;48.17;;
60665;SDS011;59128;44.642;21.188;2023-02-28T07:42:31;57.70;;;42.38;;
60665;SDS011;59128;44.642;21.188;2023-02-28T07:44:57;55.75;;;41.10;;
60665;SDS011;59128;44.642;21.188;2023-02-28T07:47:24;56.05;;;42.63;;
60665;SDS011;59128;44.642;21.188;2023-02-28T07:49:50;51.17;;;39.92;;
60665;SDS011;59128;44.642;21.188;2023-02-28T07:52:16;49.03;;;37.35;;
60665;SDS011;59128;44.642;21.188;2023-02-28T07:54:42;47.58;;;36.03;;
60665;SDS011;59128;44.642;21.188;2023-02-28T07:57:08;47.67;;;36.55;;
60665;SDS011;59128;44.642;21.188;2023-02-28T07:59:34;46.13;;;36.00;;
60665;SDS011;59128;44.642;21.188;2023-02-28T08:02:00;41.42;;;33.33;;
60665;SDS011;59128;44.642;21.188;2023-02-28T08:04:26;39.05;;;30.88;;
60665;SDS011;59128;44.642;21.188;2023-02-28T08:06:53;43.90;;;33.83;;
60665;SDS011;59128;44.642;21.188;2023-02-28T08:09:21;38.70;;;31.10;;
60665;SDS011;59128;44.642;21.188;2023-02-28T08:11:47;37.92;;;29.33;;
60665;SDS011;59128;44.642;21.188;2023-02-28T08:14:13;35.00;;;28.42;;
60665;SDS011;59128;44.642;21.188;2023-02-28T08:16:40;35.92;;;28.95;;
60665;SDS011;59128;44.642;21.188;2023-02-28T08:19:08;35.20;;;27.73;;
60665;SDS011;59128;44.642;21.188;2023-02-28T08:21:34;35.22;;;27.30;;
60665;SDS011;59128;44.642;21.188;2023-02-28T08:24:00;32.05;;;25.80;;
60665;SDS011;59128;44.642;21.188;2023-02-28T08:26:26;35.42;;;27.20;;
60665;SDS011;59128;44.642;21.188;2023-02-28T08:28:52;33.80;;;27.13;;
60665;SDS011;59128;44.642;21.188;2023-02-28T08:31:18;37.00;;;26.92;;
60665;SDS011;59128;44.642;21.188;2023-02-28T08:33:44;35.97;;;28.85;;
60665;SDS011;59128;44.642;21.188;2023-02-28T08:36:12;37.42;;;29.85;;
60665;SDS011;59128;44.642;21.188;2023-02-28T08:38:38;39.20;;;31.02;;
60665;SDS011;59128;44.642;21.188;2023-02-28T08:41:05;37.40;;;30.00;;
60665;SDS011;59128;44.642;21.188;2023-02-28T08:43:32;38.83;;;31.02;;
60665;SDS011;59128;44.642;21.188;2023-02-28T08:45:58;31.52;;;25.58;;
60665;SDS011;59128;44.642;21.188;2023-02-28T08:48:25;32.95;;;26.02;;
60665;SDS011;59128;44.642;21.188;2023-02-28T08:53:26;31.38;;;25.73;;
60665;SDS011;59128;44.642;21.188;2023-02-28T08:55:58;31.17;;;25.90;;
60665;SDS011;59128;44.642;21.188;2023-02-28T08:58:25;31.40;;;26.02;;
60665;SDS011;59128;44.642;21.188;2023-02-28T09:00:51;31.77;;;26.42;;
60665;SDS011;59128;44.642;21.188;2023-02-28T09:03:17;32.85;;;26.20;;
60665;SDS011;59128;44.642;21.188;2023-02-28T09:05:56;32.08;;;26.17;;
60665;SDS011;59128;44.642;21.188;2023-02-28T09:08:23;30.25;;;24.77;;
60665;SDS011;59128;44.642;21.188;2023-02-28T09:10:49;31.63;;;25.80;;
60665;SDS011;59128;44.642;21.188;2023-02-28T09:13:15;30.70;;;25.30;;
60665;SDS011;59128;44.642;21.188;2023-02-28T09:15:41;28.40;;;23.73;;
60665;SDS011;59128;44.642;21.188;2023-02-28T09:18:07;29.13;;;23.95;;
60665;SDS011;59128;44.642;21.188;2023-02-28T09:20:33;29.20;;;23.65;;
60665;SDS011;59128;44.642;21.188;2023-02-28T09:22:59;27.98;;;23.80;;
60665;SDS011;59128;44.642;21.188;2023-02-28T09:25:25;27.45;;;23.38;;
60665;SDS011;59128;44.642;21.188;2023-02-28T09:27:51;28.98;;;23.92;;
60665;SDS011;59128;44.642;21.188;2023-02-28T09:30:17;30.23;;;24.35;;
60665;SDS011;59128;44.642;21.188;2023-02-28T09:32:43;30.00;;;23.83;;
60665;SDS011;59128;44.642;21.188;2023-02-28T09:35:16;28.45;;;23.98;;
60665;SDS011;59128;44.642;21.188;2023-02-28T09:37:42;27.75;;;22.52;;
60665;SDS011;59128;44.642;21.188;2023-02-28T09:40:09;27.88;;;22.67;;
60665;SDS011;59128;44.642;21.188;2023-02-28T09:42:35;28.40;;;23.50;;
60665;SDS011;59128;44.642;21.188;2023-02-28T09:45:02;30.02;;;24.65;;
60665;SDS011;59128;44.642;21.188;2023-02-28T09:47:35;29.48;;;24.40;;
60665;SDS011;59128;44.642;21.188;2023-02-28T09:50:11;31.83;;;26.40;;
60665;SDS011;59128;44.642;21.188;2023-02-28T09:52:41;29.23;;;24.75;;
60665;SDS011;59128;44.642;21.188;2023-02-28T09:57:53;29.88;;;24.40;;
60665;SDS011;59128;44.642;21.188;2023-02-28T10:00:24;30.83;;;25.30;;
60665;SDS011;59128;44.642;21.188;2023-02-28T10:02:56;31.52;;;25.25;;
60665;SDS011;59128;44.642;21.188;2023-02-28T10:05:40;31.35;;;24.65;;
60665;SDS011;59128;44.642;21.188;2023-02-28T10:08:10;31.17;;;25.35;;
60665;SDS011;59128;44.642;21.188;2023-02-28T10:10:41;30.40;;;24.95;;
60665;SDS011;59128;44.642;21.188;2023-02-28T10:13:29;31.00;;;25.90;;
60665;SDS011;59128;44.642;21.188;2023-02-28T10:15:58;31.23;;;25.52;;
60665;SDS011;59128;44.642;21.188;2023-02-28T10:19:09;30.42;;;24.23;;
60665;SDS011;59128;44.642;21.188;2023-02-28T10:21:35;31.92;;;25.25;;
60665;SDS011;59128;44.642;21.188;2023-02-28T10:24:03;32.53;;;25.00;;
60665;SDS011;59128;44.642;21.188;2023-02-28T10:26:31;31.23;;;24.45;;
60665;SDS011;59128;44.642;21.188;2023-02-28T10:28:57;33.10;;;25.23;;
60665;SDS011;59128;44.642;21.188;2023-02-28T10:31:23;32.17;;;25.30;;
60665;SDS011;59128;44.642;21.188;2023-02-28T10:33:49;31.98;;;24.77;;
60665;SDS011;59128;44.642;21.188;2023-02-28T10:36:17;32.67;;;25.02;;
60665;SDS011;59128;44.642;21.188;2023-02-28T10:38:44;34.50;;;26.00;;
60665;SDS011;59128;44.642;21.188;2023-02-28T10:41:12;33.83;;;25.30;;
60665;SDS011;59128;44.642;21.188;2023-02-28T10:43:39;34.75;;;26.77;;
60665;SDS011;59128;44.642;21.188;2023-02-28T10:48:38;33.65;;;25.00;;
60665;SDS011;59128;44.642;21.188;2023-02-28T10:51:07;30.83;;;24.20;;
60665;SDS011;59128;44.642;21.188;2023-02-28T10:53:45;45.13;;;32.13;;
60665;SDS011;59128;44.642;21.188;2023-02-28T10:56:15;39.97;;;30.40;;
60665;SDS011;59128;44.642;21.188;2023-02-28T11:01:12;32.27;;;25.23;;
60665;SDS011;59128;44.642;21.188;2023-02-28T11:03:39;34.30;;;29.23;;
60665;SDS011;59128;44.642;21.188;2023-02-28T11:06:24;31.33;;;24.90;;
60665;SDS011;59128;44.642;21.188;2023-02-28T11:08:52;31.20;;;25.97;;
60665;SDS011;59128;44.642;21.188;2023-02-28T11:11:19;31.52;;;24.90;;
60665;SDS011;59128;44.642;21.188;2023-02-28T11:13:46;32.03;;;25.10;;
60665;SDS011;59128;44.642;21.188;2023-02-28T11:16:13;29.20;;;23.80;;
60665;SDS011;59128;44.642;21.188;2023-02-28T11:18:42;31.63;;;23.80;;
60665;SDS011;59128;44.642;21.188;2023-02-28T11:21:10;29.77;;;24.17;;
60665;SDS011;59128;44.642;21.188;2023-02-28T11:23:41;33.60;;;24.63;;
60665;SDS011;59128;44.642;21.188;2023-02-28T11:26:08;30.65;;;24.45;;
60665;SDS011;59128;44.642;21.188;2023-02-28T11:28:41;30.50;;;23.98;;
60665;SDS011;59128;44.642;21.188;2023-02-28T11:38:52;31.23;;;23.83;;
60665;SDS011;59128;44.642;21.188;2023-02-28T11:46:23;35.20;;;27.15;;
60665;SDS011;59128;44.642;21.188;2023-02-28T11:49:02;36.10;;;28.20;;
60665;SDS011;59128;44.642;21.188;2023-02-28T11:51:35;37.25;;;27.77;;
60665;SDS011;59128;44.642;21.188;2023-02-28T11:56:36;39.35;;;28.83;;
60665;SDS011;59128;44.642;21.188;2023-02-28T12:05:15;42.40;;;31.13;;
60665;SDS011;59128;44.642;21.188;2023-02-28T12:20:32;37.28;;;27.23;;
60665;SDS011;59128;44.642;21.188;2023-02-28T12:25:38;34.33;;;24.67;;
60665;SDS011;59128;44.642;21.188;2023-02-28T12:28:12;32.50;;;24.15;;
60665;SDS011;59128;44.642;21.188;2023-02-28T12:30:41;33.80;;;23.95;;
60665;SDS011;59128;44.642;21.188;2023-02-28T12:33:09;33.08;;;24.58;;
60665;SDS011;59128;44.642;21.188;2023-02-28T12:35:38;33.75;;;25.05;;
60665;SDS011;59128;44.642;21.188;2023-02-28T12:40:52;30.58;;;23.85;;
60665;SDS011;59128;44.642;21.188;2023-02-28T12:43:20;32.42;;;24.17;;
60665;SDS011;59128;44.642;21.188;2023-02-28T12:45:57;37.70;;;29.47;;
60665;SDS011;59128;44.642;21.188;2023-02-28T12:49:25;34.78;;;25.52;;
60665;SDS011;59128;44.642;21.188;2023-02-28T12:51:21;37.53;;;27.02;;
60665;SDS011;59128;44.642;21.188;2023-02-28T12:58:56;35.05;;;25.67;;
60665;SDS011;59128;44.642;21.188;2023-02-28T13:09:15;36.63;;;27.17;;
60665;SDS011;59128;44.642;21.188;2023-02-28T13:11:43;36.22;;;26.27;;
60665;SDS011;59128;44.642;21.188;2023-02-28T13:17:02;36.38;;;26.75;;
60665;SDS011;59128;44.642;21.188;2023-02-28T13:19:30;36.67;;;25.60;;
60665;SDS011;59128;44.642;21.188;2023-02-28T13:21:56;38.50;;;28.13;;
60665;SDS011;59128;44.642;21.188;2023-02-28T13:25:13;34.72;;;24.58;;
60665;SDS011;59128;44.642;21.188;2023-02-28T13:29:42;35.90;;;26.00;;
60665;SDS011;59128;44.642;21.188;2023-02-28T13:32:25;38.15;;;26.13;;
60665;SDS011;59128;44.642;21.188;2023-02-28T13:39:52;38.75;;;26.13;;
60665;SDS011;59128;44.642;21.188;2023-02-28T13:47:23;41.67;;;29.58;;
60665;SDS011;59128;44.642;21.188;2023-02-28T13:49:50;42.38;;;29.20;;
60665;SDS011;59128;44.642;21.188;2023-02-28T13:52:17;52.10;;;37.53;;
60665;SDS011;59128;44.642;21.188;2023-02-28T13:57:45;42.95;;;28.73;;
60665;SDS011;59128;44.642;21.188;2023-02-28T14:03:01;43.25;;;29.90;;
60665;SDS011;59128;44.642;21.188;2023-02-28T14:05:30;43.85;;;30.00;;
60665;SDS011;59128;44.642;21.188;2023-02-28T14:07:57;43.10;;;30.58;;
60665;SDS011;59128;44.642;21.188;2023-02-28T14:10:25;45.40;;;31.27;;
60665;SDS011;59128;44.642;21.188;2023-02-28T14:13:03;48.20;;;31.05;;
60665;SDS011;59128;44.642;21.188;2023-02-28T14:18:02;48.35;;;32.80;;
60665;SDS011;59128;44.642;21.188;2023-02-28T14:20:30;47.42;;;32.05;;
60665;SDS011;59128;44.642;21.188;2023-02-28T14:23:07;50.63;;;33.60;;
60665;SDS011;59128;44.642;21.188;2023-02-28T14:33:33;54.70;;;37.42;;
60665;SDS011;59128;44.642;21.188;2023-02-28T14:41:18;66.50;;;42.85;;
60665;SDS011;59128;44.642;21.188;2023-02-28T14:43:52;49.70;;;32.13;;
60665;SDS011;59128;44.642;21.188;2023-02-28T14:46:19;48.17;;;31.55;;
60665;SDS011;59128;44.642;21.188;2023-02-28T14:48:46;47.15;;;31.40;;
60665;SDS011;59128;44.642;21.188;2023-02-28T14:51:13;50.22;;;32.15;;
60665;SDS011;59128;44.642;21.188;2023-02-28T14:53:44;50.30;;;31.65;;
60665;SDS011;59128;44.642;21.188;2023-02-28T14:56:23;49.90;;;31.75;;
60665;SDS011;59128;44.642;21.188;2023-02-28T14:58:54;48.78;;;30.98;;
60665;SDS011;59128;44.642;21.188;2023-02-28T15:01:21;51.30;;;32.10;;
60665;SDS011;59128;44.642;21.188;2023-02-28T15:03:47;46.17;;;30.05;;
60665;SDS011;59128;44.642;21.188;2023-02-28T15:06:15;44.40;;;28.92;;
60665;SDS011;59128;44.642;21.188;2023-02-28T15:08:42;47.72;;;29.73;;
60665;SDS011;59128;44.642;21.188;2023-02-28T15:11:11;46.63;;;27.80;;
60665;SDS011;59128;44.642;21.188;2023-02-28T15:13:44;44.13;;;27.88;;
60665;SDS011;59128;44.642;21.188;2023-02-28T15:16:12;44.72;;;29.02;;
60665;SDS011;59128;44.642;21.188;2023-02-28T15:21:11;48.10;;;31.10;;
60665;SDS011;59128;44.642;21.188;2023-02-28T15:23:38;52.58;;;34.65;;
60665;SDS011;59128;44.642;21.188;2023-02-28T15:26:06;56.25;;;37.58;;
60665;SDS011;59128;44.642;21.188;2023-02-28T15:28:32;52.28;;;34.15;;
60665;SDS011;59128;44.642;21.188;2023-02-28T15:31:00;53.63;;;34.45;;
60665;SDS011;59128;44.642;21.188;2023-02-28T15:33:27;52.67;;;32.35;;
60665;SDS011;59128;44.642;21.188;2023-02-28T15:36:13;51.15;;;33.30;;
60665;SDS011;59128;44.642;21.188;2023-02-28T15:38:40;50.83;;;32.97;;
60665;SDS011;59128;44.642;21.188;2023-02-28T15:41:22;55.17;;;35.70;;
60665;SDS011;59128;44.642;21.188;2023-02-28T15:43:49;58.28;;;38.45;;
60665;SDS011;59128;44.642;21.188;2023-02-28T15:46:35;49.30;;;33.42;;
60665;SDS011;59128;44.642;21.188;2023-02-28T15:49:01;48.17;;;31.35;;
60665;SDS011;59128;44.642;21.188;2023-02-28T15:53:57;48.73;;;32.60;;
60665;SDS011;59128;44.642;21.188;2023-02-28T15:58:57;42.95;;;28.27;;
60665;SDS011;59128;44.642;21.188;2023-02-28T16:01:25;42.58;;;28.48;;
60665;SDS011;59128;44.642;21.188;2023-02-28T16:03:53;43.13;;;28.98;;
60665;SDS011;59128;44.642;21.188;2023-02-28T16:06:23;41.50;;;28.70;;
60665;SDS011;59128;44.642;21.188;2023-02-28T16:08:50;44.67;;;30.35;;
60665;SDS011;59128;44.642;21.188;2023-02-28T16:11:18;42.60;;;29.05;;
60665;SDS011;59128;44.642;21.188;2023-02-28T16:13:44;45.95;;;30.73;;
60665;SDS011;59128;44.642;21.188;2023-02-28T16:16:14;46.58;;;33.55;;
60665;SDS011;59128;44.642;21.188;2023-02-28T16:18:40;43.92;;;32.20;;
60665;SDS011;59128;44.642;21.188;2023-02-28T16:21:06;47.95;;;34.85;;
60665;SDS011;59128;44.642;21.188;2023-02-28T16:23:32;47.53;;;34.25;;
60665;SDS011;59128;44.642;21.188;2023-02-28T16:25:58;43.07;;;31.70;;
60665;SDS011;59128;44.642;21.188;2023-02-28T16:28:26;44.67;;;30.73;;
60665;SDS011;59128;44.642;21.188;2023-02-28T16:30:56;47.42;;;32.60;;
60665;SDS011;59128;44.642;21.188;2023-02-28T16:33:22;44.08;;;29.95;;
60665;SDS011;59128;44.642;21.188;2023-02-28T16:35:48;50.88;;;33.60;;
60665;SDS011;59128;44.642;21.188;2023-02-28T16:38:14;53.30;;;35.40;;
60665;SDS011;59128;44.642;21.188;2023-02-28T16:40:40;54.43;;;39.03;;
60665;SDS011;59128;44.642;21.188;2023-02-28T16:43:14;46.78;;;31.42;;
60665;SDS011;59128;44.642;21.188;2023-02-28T16:45:41;47.60;;;31.87;;